sensor_id;sensor_type;location;lat;lon;timestamp;P1;durP1;ratioP1;P2;durP2;ratioP2
22455;SDS011;11395;53.204;6.502;2022-10-16T00:09:30;1.00;;;1.00;;
22455;SDS011;11395;53.204;6.502;2022-10-16T00:11:57;1.30;;;1.20;;
22455;SDS011;11395;53.204;6.502;2022-10-16T00:14:23;1.30;;;1.20;;
22455;SDS011;11395;53.204;6.502;2022-10-16T00:16:49;1.00;;;1.00;;
22455;SDS011;11395;53.204;6.502;2022-10-16T00:19:15;1.23;;;1.13;;
22455;SDS011;11395;53.204;6.502;2022-10-16T00:21:41;0.97;;;0.97;;
22455;SDS011;11395;53.204;6.502;2022-10-16T00:24:08;0.93;;;0.93;;
22455;SDS011;11395;53.204;6.502;2022-10-16T00:26:36;1.40;;;1.30;;
22455;SDS011;11395;53.204;6.502;2022-10-16T00:29:03;1.23;;;1.20;;
22455;SDS011;11395;53.204;6.502;2022-10-16T00:31:30;1.17;;;1.17;;
22455;SDS011;11395;53.204;6.502;2022-10-16T00:33:56;1.03;;;0.90;;
22455;SDS011;11395;53.204;6.502;2022-10-16T00:36:23;1.37;;;1.27;;
22455;SDS011;11395;53.204;6.502;2022-10-16T00:38:55;1.00;;;1.00;;
22455;SDS011;11395;53.204;6.502;2022-10-16T00:41:25;0.90;;;0.90;;
22455;SDS011;11395;53.204;6.502;2022-10-16T00:46:20;0.90;;;0.90;;
22455;SDS011;11395;53.204;6.502;2022-10-16T00:51:37;1.17;;;1.10;;
22455;SDS011;11395;53.204;6.502;2022-10-16T00:54:09;1.07;;;1.07;;
22455;SDS011;11395;53.204;6.502;2022-10-16T00:56:43;1.00;;;1.00;;
22455;SDS011;11395;53.204;6.502;2022-10-16T00:59:23;0.87;;;0.87;;
22455;SDS011;11395;53.204;6.502;2022-10-16T01:09:43;0.90;;;0.90;;
22455;SDS011;11395;53.204;6.502;2022-10-16T01:12:36;1.00;;;1.00;;
22455;SDS011;11395;53.204;6.502;2022-10-16T01:18:08;0.80;;;0.80;;
22455;SDS011;11395;53.204;6.502;2022-10-16T01:20:38;1.03;;;1.03;;
22455;SDS011;11395;53.204;6.502;2022-10-16T01:28:54;1.10;;;1.00;;
22455;SDS011;11395;53.204;6.502;2022-10-16T01:31:33;1.17;;;1.00;;
22455;SDS011;11395;53.204;6.502;2022-10-16T01:34:14;1.23;;;0.90;;
22455;SDS011;11395;53.204;6.502;2022-10-16T01:36:48;1.00;;;1.00;;
22455;SDS011;11395;53.204;6.502;2022-10-16T01:39:24;0.80;;;0.80;;
22455;SDS011;11395;53.204;6.502;2022-10-16T01:41:57;0.97;;;0.97;;
22455;SDS011;11395;53.204;6.502;2022-10-16T01:44:46;1.03;;;1.00;;
22455;SDS011;11395;53.204;6.502;2022-10-16T01:47:13;0.97;;;0.97;;
22455;SDS011;11395;53.204;6.502;2022-10-16T01:49:41;1.20;;;1.10;;
22455;SDS011;11395;53.204;6.502;2022-10-16T01:52:11;1.20;;;1.10;;
22455;SDS011;11395;53.204;6.502;2022-10-16T01:54:42;1.47;;;1.03;;
22455;SDS011;11395;53.204;6.502;2022-10-16T01:57:11;1.03;;;1.03;;
22455;SDS011;11395;53.204;6.502;2022-10-16T01:59:44;1.17;;;1.07;;
22455;SDS011;11395;53.204;6.502;2022-10-16T02:02:13;1.07;;;1.07;;
22455;SDS011;11395;53.204;6.502;2022-10-16T02:04:44;1.20;;;1.07;;
22455;SDS011;11395;53.204;6.502;2022-10-16T02:07:13;0.90;;;0.90;;
22455;SDS011;11395;53.204;6.502;2022-10-16T02:09:40;1.57;;;1.10;;
22455;SDS011;11395;53.204;6.502;2022-10-16T02:12:11;1.03;;;1.03;;
22455;SDS011;11395;53.204;6.502;2022-10-16T02:14:44;0.97;;;0.97;;
22455;SDS011;11395;53.204;6.502;2022-10-16T02:17:11;1.07;;;1.00;;
22455;SDS011;11395;53.204;6.502;2022-10-16T02:19:39;2.10;;;1.20;;
22455;SDS011;11395;53.204;6.502;2022-10-16T02:22:07;1.07;;;1.07;;
22455;SDS011;11395;53.204;6.502;2022-10-16T02:24:38;1.00;;;1.00;;
22455;SDS011;11395;53.204;6.502;2022-10-16T02:27:16;0.90;;;0.90;;
22455;SDS011;11395;53.204;6.502;2022-10-16T02:29:56;1.00;;;1.00;;
22455;SDS011;11395;53.204;6.502;2022-10-16T02:32:33;1.43;;;1.33;;
22455;SDS011;11395;53.204;6.502;2022-10-16T02:35:02;0.83;;;0.83;;
22455;SDS011;11395;53.204;6.502;2022-10-16T02:37:30;1.10;;;1.00;;
22455;SDS011;11395;53.204;6.502;2022-10-16T02:39:57;0.90;;;0.90;;
22455;SDS011;11395;53.204;6.502;2022-10-16T02:42:34;1.00;;;1.00;;
22455;SDS011;11395;53.204;6.502;2022-10-16T02:45:01;1.10;;;1.00;;
22455;SDS011;11395;53.204;6.502;2022-10-16T02:47:29;1.00;;;1.00;;
22455;SDS011;11395;53.204;6.502;2022-10-16T02:49:55;0.93;;;0.93;;
22455;SDS011;11395;53.204;6.502;2022-10-16T02:52:21;0.97;;;0.97;;
22455;SDS011;11395;53.204;6.502;2022-10-16T02:54:47;1.20;;;1.10;;
22455;SDS011;11395;53.204;6.502;2022-10-16T02:57:13;3.60;;;1.30;;
22455;SDS011;11395;53.204;6.502;2022-10-16T02:59:39;1.30;;;1.20;;
22455;SDS011;11395;53.204;6.502;2022-10-16T03:02:06;1.00;;;0.90;;
22455;SDS011;11395;53.204;6.502;2022-10-16T03:04:32;1.20;;;1.10;;
22455;SDS011;11395;53.204;6.502;2022-10-16T03:06:58;1.00;;;1.00;;
22455;SDS011;11395;53.204;6.502;2022-10-16T03:09:25;1.60;;;0.90;;
22455;SDS011;11395;53.204;6.502;2022-10-16T03:11:51;0.80;;;0.80;;
22455;SDS011;11395;53.204;6.502;2022-10-16T03:14:18;0.83;;;0.83;;
22455;SDS011;11395;53.204;6.502;2022-10-16T03:16:44;1.30;;;1.10;;
22455;SDS011;11395;53.204;6.502;2022-10-16T03:19:10;1.07;;;0.90;;
22455;SDS011;11395;53.204;6.502;2022-10-16T03:21:36;1.07;;;1.07;;
22455;SDS011;11395;53.204;6.502;2022-10-16T03:24:02;1.33;;;1.17;;
22455;SDS011;11395;53.204;6.502;2022-10-16T03:26:29;1.00;;;1.00;;
22455;SDS011;11395;53.204;6.502;2022-10-16T03:28:55;1.30;;;1.10;;
22455;SDS011;11395;53.204;6.502;2022-10-16T03:31:21;1.00;;;1.00;;
22455;SDS011;11395;53.204;6.502;2022-10-16T03:33:47;0.80;;;0.80;;
22455;SDS011;11395;53.204;6.502;2022-10-16T03:36:14;1.10;;;1.10;;
22455;SDS011;11395;53.204;6.502;2022-10-16T03:38:40;0.90;;;0.90;;
22455;SDS011;11395;53.204;6.502;2022-10-16T03:41:06;1.00;;;1.00;;
22455;SDS011;11395;53.204;6.502;2022-10-16T03:43:33;0.70;;;0.70;;
22455;SDS011;11395;53.204;6.502;2022-10-16T03:45:59;1.20;;;1.10;;
22455;SDS011;11395;53.204;6.502;2022-10-16T03:48:25;0.97;;;0.90;;
22455;SDS011;11395;53.204;6.502;2022-10-16T03:50:51;1.70;;;0.80;;
22455;SDS011;11395;53.204;6.502;2022-10-16T03:53:18;0.87;;;0.87;;
22455;SDS011;11395;53.204;6.502;2022-10-16T03:55:44;2.20;;;1.17;;
22455;SDS011;11395;53.204;6.502;2022-10-16T03:58:10;1.00;;;1.00;;
22455;SDS011;11395;53.204;6.502;2022-10-16T04:00:43;1.13;;;1.10;;
22455;SDS011;11395;53.204;6.502;2022-10-16T04:03:10;1.10;;;1.10;;
22455;SDS011;11395;53.204;6.502;2022-10-16T04:05:37;1.00;;;1.00;;
22455;SDS011;11395;53.204;6.502;2022-10-16T04:08:03;1.10;;;1.10;;
22455;SDS011;11395;53.204;6.502;2022-10-16T04:10:29;0.80;;;0.80;;
22455;SDS011;11395;53.204;6.502;2022-10-16T04:12:56;0.97;;;0.97;;
22455;SDS011;11395;53.204;6.502;2022-10-16T04:15:22;1.27;;;1.17;;
22455;SDS011;11395;53.204;6.502;2022-10-16T04:17:49;3.13;;;1.03;;
22455;SDS011;11395;53.204;6.502;2022-10-16T04:20:16;1.50;;;1.10;;
22455;SDS011;11395;53.204;6.502;2022-10-16T04:22:43;0.80;;;0.80;;
22455;SDS011;11395;53.204;6.502;2022-10-16T04:25:09;1.37;;;1.27;;
22455;SDS011;11395;53.204;6.502;2022-10-16T04:27:37;0.90;;;0.90;;
22455;SDS011;11395;53.204;6.502;2022-10-16T04:30:04;1.10;;;1.10;;
22455;SDS011;11395;53.204;6.502;2022-10-16T04:32:30;1.37;;;1.07;;
22455;SDS011;11395;53.204;6.502;2022-10-16T04:34:56;1.07;;;1.07;;
22455;SDS011;11395;53.204;6.502;2022-10-16T04:37:23;0.80;;;0.80;;
22455;SDS011;11395;53.204;6.502;2022-10-16T04:39:51;0.80;;;0.80;;
22455;SDS011;11395;53.204;6.502;2022-10-16T04:42:18;1.00;;;1.00;;
22455;SDS011;11395;53.204;6.502;2022-10-16T04:44:44;0.93;;;0.93;;
22455;SDS011;11395;53.204;6.502;2022-10-16T04:47:10;0.80;;;0.80;;
22455;SDS011;11395;53.204;6.502;2022-10-16T04:49:37;0.90;;;0.90;;
22455;SDS011;11395;53.204;6.502;2022-10-16T04:52:03;0.80;;;0.80;;
22455;SDS011;11395;53.204;6.502;2022-10-16T04:54:30;0.90;;;0.90;;
22455;SDS011;11395;53.204;6.502;2022-10-16T04:56:56;0.90;;;0.90;;
22455;SDS011;11395;53.204;6.502;2022-10-16T04:59:22;1.40;;;0.80;;
22455;SDS011;11395;53.204;6.502;2022-10-16T05:01:49;0.77;;;0.77;;
22455;SDS011;11395;53.204;6.502;2022-10-16T05:04:15;1.23;;;1.17;;
22455;SDS011;11395;53.204;6.502;2022-10-16T05:06:42;0.80;;;0.80;;
22455;SDS011;11395;53.204;6.502;2022-10-16T05:09:08;0.90;;;0.90;;
22455;SDS011;11395;53.204;6.502;2022-10-16T05:11:35;0.90;;;0.90;;
22455;SDS011;11395;53.204;6.502;2022-10-16T05:14:01;0.80;;;0.80;;
22455;SDS011;11395;53.204;6.502;2022-10-16T05:16:28;1.10;;;1.10;;
22455;SDS011;11395;53.204;6.502;2022-10-16T05:18:55;0.80;;;0.80;;
22455;SDS011;11395;53.204;6.502;2022-10-16T05:21:22;0.93;;;0.93;;
22455;SDS011;11395;53.204;6.502;2022-10-16T05:23:48;0.90;;;0.90;;
22455;SDS011;11395;53.204;6.502;2022-10-16T05:26:14;0.80;;;0.80;;
22455;SDS011;11395;53.204;6.502;2022-10-16T05:28:40;0.80;;;0.80;;
22455;SDS011;11395;53.204;6.502;2022-10-16T05:31:07;0.90;;;0.90;;
22455;SDS011;11395;53.204;6.502;2022-10-16T05:33:34;0.70;;;0.70;;
22455;SDS011;11395;53.204;6.502;2022-10-16T05:36:10;0.90;;;0.90;;
22455;SDS011;11395;53.204;6.502;2022-10-16T05:38:36;0.80;;;0.80;;
22455;SDS011;11395;53.204;6.502;2022-10-16T05:41:03;0.90;;;0.90;;
22455;SDS011;11395;53.204;6.502;2022-10-16T05:43:30;0.80;;;0.80;;
22455;SDS011;11395;53.204;6.502;2022-10-16T05:45:58;0.80;;;0.80;;
22455;SDS011;11395;53.204;6.502;2022-10-16T05:48:29;0.97;;;0.97;;
22455;SDS011;11395;53.204;6.502;2022-10-16T05:50:59;1.03;;;0.93;;
22455;SDS011;11395;53.204;6.502;2022-10-16T05:53:27;0.90;;;0.90;;
22455;SDS011;11395;53.204;6.502;2022-10-16T05:55:54;1.03;;;1.03;;
22455;SDS011;11395;53.204;6.502;2022-10-16T05:58:21;0.70;;;0.70;;
22455;SDS011;11395;53.204;6.502;2022-10-16T06:03:25;1.53;;;1.00;;
22455;SDS011;11395;53.204;6.502;2022-10-16T06:05:52;1.00;;;1.00;;
22455;SDS011;11395;53.204;6.502;2022-10-16T06:08:20;0.90;;;0.90;;
22455;SDS011;11395;53.204;6.502;2022-10-16T06:10:47;0.80;;;0.80;;
22455;SDS011;11395;53.204;6.502;2022-10-16T06:13:14;0.80;;;0.80;;
22455;SDS011;11395;53.204;6.502;2022-10-16T06:15:42;0.87;;;0.83;;
22455;SDS011;11395;53.204;6.502;2022-10-16T06:18:09;1.37;;;0.80;;
22455;SDS011;11395;53.204;6.502;2022-10-16T06:20:36;0.80;;;0.80;;
22455;SDS011;11395;53.204;6.502;2022-10-16T06:23:03;0.90;;;0.90;;
22455;SDS011;11395;53.204;6.502;2022-10-16T06:25:30;0.90;;;0.90;;
22455;SDS011;11395;53.204;6.502;2022-10-16T06:27:57;0.80;;;0.80;;
22455;SDS011;11395;53.204;6.502;2022-10-16T06:30:23;0.60;;;0.60;;
22455;SDS011;11395;53.204;6.502;2022-10-16T06:32:49;0.90;;;0.90;;
22455;SDS011;11395;53.204;6.502;2022-10-16T06:35:15;0.90;;;0.90;;
22455;SDS011;11395;53.204;6.502;2022-10-16T06:37:42;0.90;;;0.90;;
22455;SDS011;11395;53.204;6.502;2022-10-16T06:40:08;0.80;;;0.80;;
22455;SDS011;11395;53.204;6.502;2022-10-16T06:42:34;0.93;;;0.87;;
22455;SDS011;11395;53.204;6.502;2022-10-16T06:45:00;1.03;;;1.03;;
22455;SDS011;11395;53.204;6.502;2022-10-16T06:47:27;0.83;;;0.83;;
22455;SDS011;11395;53.204;6.502;2022-10-16T06:49:53;1.90;;;1.10;;
22455;SDS011;11395;53.204;6.502;2022-10-16T06:52:19;0.93;;;0.90;;
22455;SDS011;11395;53.204;6.502;2022-10-16T06:54:45;2.83;;;1.17;;
22455;SDS011;11395;53.204;6.502;2022-10-16T06:57:12;0.80;;;0.80;;
22455;SDS011;11395;53.204;6.502;2022-10-16T06:59:38;1.10;;;1.10;;
22455;SDS011;11395;53.204;6.502;2022-10-16T07:02:04;1.00;;;1.00;;
22455;SDS011;11395;53.204;6.502;2022-10-16T07:04:31;0.97;;;0.97;;
22455;SDS011;11395;53.204;6.502;2022-10-16T07:06:57;1.03;;;1.00;;
22455;SDS011;11395;53.204;6.502;2022-10-16T07:09:25;1.17;;;1.07;;
22455;SDS011;11395;53.204;6.502;2022-10-16T07:11:51;2.00;;;0.70;;
22455;SDS011;11395;53.204;6.502;2022-10-16T07:14:19;1.53;;;0.90;;
22455;SDS011;11395;53.204;6.502;2022-10-16T07:16:47;0.80;;;0.80;;
22455;SDS011;11395;53.204;6.502;2022-10-16T07:19:13;0.90;;;0.90;;
22455;SDS011;11395;53.204;6.502;2022-10-16T07:21:41;1.00;;;1.00;;
22455;SDS011;11395;53.204;6.502;2022-10-16T07:24:12;0.90;;;0.90;;
22455;SDS011;11395;53.204;6.502;2022-10-16T07:26:42;1.23;;;1.00;;
22455;SDS011;11395;53.204;6.502;2022-10-16T07:29:17;0.80;;;0.80;;
22455;SDS011;11395;53.204;6.502;2022-10-16T07:31:46;1.27;;;1.13;;
22455;SDS011;11395;53.204;6.502;2022-10-16T07:34:13;1.00;;;1.00;;
22455;SDS011;11395;53.204;6.502;2022-10-16T07:36:42;0.70;;;0.70;;
22455;SDS011;11395;53.204;6.502;2022-10-16T07:39:08;0.90;;;0.90;;
22455;SDS011;11395;53.204;6.502;2022-10-16T07:41:34;1.80;;;0.90;;
22455;SDS011;11395;53.204;6.502;2022-10-16T07:44:02;1.23;;;1.00;;
22455;SDS011;11395;53.204;6.502;2022-10-16T07:46:29;0.90;;;0.90;;
22455;SDS011;11395;53.204;6.502;2022-10-16T07:48:56;1.03;;;1.00;;
22455;SDS011;11395;53.204;6.502;2022-10-16T07:51:23;1.63;;;0.90;;
22455;SDS011;11395;53.204;6.502;2022-10-16T07:53:51;1.20;;;1.10;;
22455;SDS011;11395;53.204;6.502;2022-10-16T07:56:18;1.00;;;1.00;;
22455;SDS011;11395;53.204;6.502;2022-10-16T07:58:45;0.90;;;0.90;;
22455;SDS011;11395;53.204;6.502;2022-10-16T08:01:12;3.40;;;1.00;;
22455;SDS011;11395;53.204;6.502;2022-10-16T08:03:43;0.80;;;0.80;;
22455;SDS011;11395;53.204;6.502;2022-10-16T08:06:11;0.87;;;0.87;;
22455;SDS011;11395;53.204;6.502;2022-10-16T08:08:37;1.00;;;1.00;;
22455;SDS011;11395;53.204;6.502;2022-10-16T08:11:03;2.67;;;1.20;;
22455;SDS011;11395;53.204;6.502;2022-10-16T08:13:30;1.20;;;1.10;;
22455;SDS011;11395;53.204;6.502;2022-10-16T08:15:57;2.13;;;1.30;;
22455;SDS011;11395;53.204;6.502;2022-10-16T08:18:23;2.10;;;1.20;;
22455;SDS011;11395;53.204;6.502;2022-10-16T08:20:57;2.40;;;0.93;;
22455;SDS011;11395;53.204;6.502;2022-10-16T08:23:25;2.00;;;1.20;;
22455;SDS011;11395;53.204;6.502;2022-10-16T08:25:53;0.90;;;0.90;;
22455;SDS011;11395;53.204;6.502;2022-10-16T08:28:20;1.60;;;1.00;;
22455;SDS011;11395;53.204;6.502;2022-10-16T08:30:47;0.97;;;0.90;;
22455;SDS011;11395;53.204;6.502;2022-10-16T08:33:13;0.90;;;0.90;;
22455;SDS011;11395;53.204;6.502;2022-10-16T08:35:40;1.47;;;1.00;;
22455;SDS011;11395;53.204;6.502;2022-10-16T08:38:06;1.00;;;1.00;;
22455;SDS011;11395;53.204;6.502;2022-10-16T08:40:33;2.70;;;1.00;;
22455;SDS011;11395;53.204;6.502;2022-10-16T08:49:08;1.00;;;0.90;;
22455;SDS011;11395;53.204;6.502;2022-10-16T08:51:39;0.83;;;0.77;;
22455;SDS011;11395;53.204;6.502;2022-10-16T08:56:54;0.80;;;0.80;;
22455;SDS011;11395;53.204;6.502;2022-10-16T08:59:30;2.43;;;1.20;;
22455;SDS011;11395;53.204;6.502;2022-10-16T09:01:56;0.90;;;0.83;;
22455;SDS011;11395;53.204;6.502;2022-10-16T09:07:37;0.90;;;0.90;;
22455;SDS011;11395;53.204;6.502;2022-10-16T09:13:03;1.00;;;1.00;;
22455;SDS011;11395;53.204;6.502;2022-10-16T09:18:41;0.93;;;0.80;;
22455;SDS011;11395;53.204;6.502;2022-10-16T09:21:15;1.40;;;1.10;;
22455;SDS011;11395;53.204;6.502;2022-10-16T09:23:47;1.27;;;0.90;;
22455;SDS011;11395;53.204;6.502;2022-10-16T09:26:14;1.93;;;1.03;;
22455;SDS011;11395;53.204;6.502;2022-10-16T09:28:42;1.40;;;1.30;;
22455;SDS011;11395;53.204;6.502;2022-10-16T09:31:18;1.67;;;1.00;;
22455;SDS011;11395;53.204;6.502;2022-10-16T09:33:48;1.00;;;1.00;;
22455;SDS011;11395;53.204;6.502;2022-10-16T09:36:19;1.50;;;0.90;;
22455;SDS011;11395;53.204;6.502;2022-10-16T09:38:46;1.63;;;1.07;;
22455;SDS011;11395;53.204;6.502;2022-10-16T09:41:20;1.37;;;1.00;;
22455;SDS011;11395;53.204;6.502;2022-10-16T09:46:22;1.20;;;1.10;;
22455;SDS011;11395;53.204;6.502;2022-10-16T09:49:24;1.83;;;0.90;;
22455;SDS011;11395;53.204;6.502;2022-10-16T09:52:05;1.00;;;1.00;;
22455;SDS011;11395;53.204;6.502;2022-10-16T09:54:37;1.00;;;1.00;;
22455;SDS011;11395;53.204;6.502;2022-10-16T09:57:04;1.70;;;1.27;;
22455;SDS011;11395;53.204;6.502;2022-10-16T09:59:45;1.03;;;1.03;;
22455;SDS011;11395;53.204;6.502;2022-10-16T10:02:20;1.37;;;1.10;;
22455;SDS011;11395;53.204;6.502;2022-10-16T10:05:16;1.50;;;0.97;;
22455;SDS011;11395;53.204;6.502;2022-10-16T10:07:53;1.10;;;1.10;;
22455;SDS011;11395;53.204;6.502;2022-10-16T10:10:32;1.07;;;1.07;;
22455;SDS011;11395;53.204;6.502;2022-10-16T10:13:03;0.90;;;0.90;;
22455;SDS011;11395;53.204;6.502;2022-10-16T10:15:34;1.50;;;1.40;;
22455;SDS011;11395;53.204;6.502;2022-10-16T10:18:02;2.37;;;1.10;;
22455;SDS011;11395;53.204;6.502;2022-10-16T10:20:35;1.07;;;0.90;;
22455;SDS011;11395;53.204;6.502;2022-10-16T10:31:21;1.13;;;1.00;;
22455;SDS011;11395;53.204;6.502;2022-10-16T10:40:29;1.80;;;1.10;;
22455;SDS011;11395;53.204;6.502;2022-10-16T10:45:52;1.27;;;1.17;;
22455;SDS011;11395;53.204;6.502;2022-10-16T10:51:30;1.10;;;1.03;;
22455;SDS011;11395;53.204;6.502;2022-10-16T11:06:15;1.43;;;1.20;;
22455;SDS011;11395;53.204;6.502;2022-10-16T11:08:53;0.90;;;0.90;;
22455;SDS011;11395;53.204;6.502;2022-10-16T11:14:35;2.47;;;1.20;;
22455;SDS011;11395;53.204;6.502;2022-10-16T11:17:10;0.90;;;0.90;;
22455;SDS011;11395;53.204;6.502;2022-10-16T11:24:03;7.67;;;4.37;;
22455;SDS011;11395;53.204;6.502;2022-10-16T11:26:10;10.10;;;5.60;;
22455;SDS011;11395;53.204;6.502;2022-10-16T11:28:45;13.27;;;6.97;;
22455;SDS011;11395;53.204;6.502;2022-10-16T11:34:17;15.90;;;8.20;;
22455;SDS011;11395;53.204;6.502;2022-10-16T11:39:43;20.73;;;10.03;;
22455;SDS011;11395;53.204;6.502;2022-10-16T11:42:16;18.43;;;10.13;;
22455;SDS011;11395;53.204;6.502;2022-10-16T11:48:00;24.10;;;11.90;;
22455;SDS011;11395;53.204;6.502;2022-10-16T11:50:43;18.80;;;11.20;;
22455;SDS011;11395;53.204;6.502;2022-10-16T11:53:29;15.60;;;9.07;;
22455;SDS011;11395;53.204;6.502;2022-10-16T11:56:11;16.33;;;8.93;;
22455;SDS011;11395;53.204;6.502;2022-10-16T11:58:45;16.83;;;9.03;;
22455;SDS011;11395;53.204;6.502;2022-10-16T12:06:40;17.50;;;9.10;;
22455;SDS011;11395;53.204;6.502;2022-10-16T12:09:18;17.10;;;8.07;;
22455;SDS011;11395;53.204;6.502;2022-10-16T12:11:46;12.57;;;7.43;;
22455;SDS011;11395;53.204;6.502;2022-10-16T12:19:21;13.20;;;6.57;;
22455;SDS011;11395;53.204;6.502;2022-10-16T12:21:51;15.83;;;7.13;;
22455;SDS011;11395;53.204;6.502;2022-10-16T12:26:59;12.47;;;7.13;;
22455;SDS011;11395;53.204;6.502;2022-10-16T12:32:02;15.17;;;7.13;;
22455;SDS011;11395;53.204;6.502;2022-10-16T12:35:04;14.00;;;7.33;;
22455;SDS011;11395;53.204;6.502;2022-10-16T12:37:25;11.40;;;6.80;;
22455;SDS011;11395;53.204;6.502;2022-10-16T12:39:55;13.60;;;6.83;;
22455;SDS011;11395;53.204;6.502;2022-10-16T12:44:52;10.17;;;6.13;;
22455;SDS011;11395;53.204;6.502;2022-10-16T12:47:23;10.10;;;7.07;;
22455;SDS011;11395;53.204;6.502;2022-10-16T12:50:21;15.13;;;6.70;;
22455;SDS011;11395;53.204;6.502;2022-10-16T12:53:00;9.47;;;6.07;;
22455;SDS011;11395;53.204;6.502;2022-10-16T12:55:27;11.80;;;6.10;;
22455;SDS011;11395;53.204;6.502;2022-10-16T13:00:56;9.00;;;5.37;;
22455;SDS011;11395;53.204;6.502;2022-10-16T13:17:12;8.20;;;4.80;;
22455;SDS011;11395;53.204;6.502;2022-10-16T13:20:16;12.20;;;6.27;;
22455;SDS011;11395;53.204;6.502;2022-10-16T13:23:05;7.70;;;4.70;;
22455;SDS011;11395;53.204;6.502;2022-10-16T13:28:22;8.77;;;5.17;;
22455;SDS011;11395;53.204;6.502;2022-10-16T13:30:59;10.97;;;5.10;;
22455;SDS011;11395;53.204;6.502;2022-10-16T13:36:01;9.07;;;4.47;;
22455;SDS011;11395;53.204;6.502;2022-10-16T13:38:32;8.10;;;4.40;;
22455;SDS011;11395;53.204;6.502;2022-10-16T13:46:02;8.83;;;4.17;;
22455;SDS011;11395;53.204;6.502;2022-10-16T13:48:31;7.73;;;4.03;;
22455;SDS011;11395;53.204;6.502;2022-10-16T13:51:06;5.87;;;4.00;;
22455;SDS011;11395;53.204;6.502;2022-10-16T13:53:40;10.30;;;4.27;;
22455;SDS011;11395;53.204;6.502;2022-10-16T13:56:10;7.60;;;3.63;;
22455;SDS011;11395;53.204;6.502;2022-10-16T13:58:38;6.20;;;4.07;;
22455;SDS011;11395;53.204;6.502;2022-10-16T14:01:05;6.90;;;4.00;;
22455;SDS011;11395;53.204;6.502;2022-10-16T14:03:41;6.20;;;4.20;;
22455;SDS011;11395;53.204;6.502;2022-10-16T14:06:11;8.37;;;3.73;;
22455;SDS011;11395;53.204;6.502;2022-10-16T14:08:43;6.23;;;3.63;;
22455;SDS011;11395;53.204;6.502;2022-10-16T14:11:19;5.40;;;3.70;;
22455;SDS011;11395;53.204;6.502;2022-10-16T14:13:49;7.43;;;3.87;;
22455;SDS011;11395;53.204;6.502;2022-10-16T14:16:20;6.87;;;3.50;;
22455;SDS011;11395;53.204;6.502;2022-10-16T14:19:34;6.20;;;3.30;;
22455;SDS011;11395;53.204;6.502;2022-10-16T14:21:44;4.20;;;3.20;;
22455;SDS011;11395;53.204;6.502;2022-10-16T14:24:11;4.63;;;3.27;;
22455;SDS011;11395;53.204;6.502;2022-10-16T14:26:44;5.57;;;3.27;;
22455;SDS011;11395;53.204;6.502;2022-10-16T14:29:14;5.47;;;3.17;;
22455;SDS011;11395;53.204;6.502;2022-10-16T14:31:53;6.00;;;3.40;;
22455;SDS011;11395;53.204;6.502;2022-10-16T14:34:27;4.67;;;3.43;;
22455;SDS011;11395;53.204;6.502;2022-10-16T14:36:59;5.97;;;3.47;;
22455;SDS011;11395;53.204;6.502;2022-10-16T14:39:32;4.27;;;3.07;;
22455;SDS011;11395;53.204;6.502;2022-10-16T14:41:59;5.37;;;3.20;;
22455;SDS011;11395;53.204;6.502;2022-10-16T14:44:32;5.00;;;3.13;;
22455;SDS011;11395;53.204;6.502;2022-10-16T14:47:06;5.87;;;3.33;;
22455;SDS011;11395;53.204;6.502;2022-10-16T14:49:38;7.27;;;3.70;;
22455;SDS011;11395;53.204;6.502;2022-10-16T14:52:08;5.67;;;3.43;;
22455;SDS011;11395;53.204;6.502;2022-10-16T14:54:38;5.57;;;3.37;;
22455;SDS011;11395;53.204;6.502;2022-10-16T14:57:04;4.73;;;3.23;;
22455;SDS011;11395;53.204;6.502;2022-10-16T14:59:35;4.70;;;3.40;;
22455;SDS011;11395;53.204;6.502;2022-10-16T15:04:54;3.90;;;3.00;;
22455;SDS011;11395;53.204;6.502;2022-10-16T15:07:20;5.30;;;3.10;;
22455;SDS011;11395;53.204;6.502;2022-10-16T15:09:47;5.67;;;3.50;;
22455;SDS011;11395;53.204;6.502;2022-10-16T15:12:13;5.10;;;3.20;;
22455;SDS011;11395;53.204;6.502;2022-10-16T15:14:39;6.43;;;3.17;;
22455;SDS011;11395;53.204;6.502;2022-10-16T15:17:07;4.43;;;2.93;;
22455;SDS011;11395;53.204;6.502;2022-10-16T15:19:37;4.53;;;2.90;;
22455;SDS011;11395;53.204;6.502;2022-10-16T15:22:03;4.37;;;3.33;;
22455;SDS011;11395;53.204;6.502;2022-10-16T15:24:30;4.07;;;3.30;;
22455;SDS011;11395;53.204;6.502;2022-10-16T15:26:56;6.30;;;3.43;;
22455;SDS011;11395;53.204;6.502;2022-10-16T15:29:22;5.67;;;3.47;;
22455;SDS011;11395;53.204;6.502;2022-10-16T15:31:51;5.70;;;2.97;;
22455;SDS011;11395;53.204;6.502;2022-10-16T15:34:20;3.90;;;2.73;;
22455;SDS011;11395;53.204;6.502;2022-10-16T15:36:46;4.33;;;3.07;;
22455;SDS011;11395;53.204;6.502;2022-10-16T15:39:16;4.93;;;2.80;;
22455;SDS011;11395;53.204;6.502;2022-10-16T15:41:46;5.83;;;3.30;;
22455;SDS011;11395;53.204;6.502;2022-10-16T15:44:16;4.73;;;2.77;;
22455;SDS011;11395;53.204;6.502;2022-10-16T15:46:45;4.03;;;3.00;;
22455;SDS011;11395;53.204;6.502;2022-10-16T15:49:15;4.90;;;2.90;;
22455;SDS011;11395;53.204;6.502;2022-10-16T15:51:41;3.70;;;2.77;;
22455;SDS011;11395;53.204;6.502;2022-10-16T15:54:08;4.97;;;2.77;;
22455;SDS011;11395;53.204;6.502;2022-10-16T15:56:35;4.00;;;2.20;;
22455;SDS011;11395;53.204;6.502;2022-10-16T15:59:02;5.30;;;2.80;;
22455;SDS011;11395;53.204;6.502;2022-10-16T16:01:34;5.40;;;2.70;;
22455;SDS011;11395;53.204;6.502;2022-10-16T16:04:01;5.97;;;3.00;;
22455;SDS011;11395;53.204;6.502;2022-10-16T16:06:32;4.17;;;2.60;;
22455;SDS011;11395;53.204;6.502;2022-10-16T16:08:59;5.00;;;2.93;;
22455;SDS011;11395;53.204;6.502;2022-10-16T16:11:26;3.30;;;2.60;;
22455;SDS011;11395;53.204;6.502;2022-10-16T16:13:52;3.73;;;2.23;;
22455;SDS011;11395;53.204;6.502;2022-10-16T16:16:20;7.67;;;3.17;;
22455;SDS011;11395;53.204;6.502;2022-10-16T16:18:47;3.97;;;2.60;;
22455;SDS011;11395;53.204;6.502;2022-10-16T16:21:14;4.93;;;2.90;;
22455;SDS011;11395;53.204;6.502;2022-10-16T16:23:41;2.80;;;2.40;;
22455;SDS011;11395;53.204;6.502;2022-10-16T16:28:36;3.00;;;2.20;;
22455;SDS011;11395;53.204;6.502;2022-10-16T16:31:03;4.43;;;2.67;;
22455;SDS011;11395;53.204;6.502;2022-10-16T16:33:30;4.07;;;2.83;;
22455;SDS011;11395;53.204;6.502;2022-10-16T16:36:01;3.70;;;2.33;;
22455;SDS011;11395;53.204;6.502;2022-10-16T16:38:29;4.43;;;2.10;;
22455;SDS011;11395;53.204;6.502;2022-10-16T16:40:55;6.30;;;2.60;;
22455;SDS011;11395;53.204;6.502;2022-10-16T16:43:23;3.37;;;2.40;;
22455;SDS011;11395;53.204;6.502;2022-10-16T16:45:53;3.63;;;2.37;;
22455;SDS011;11395;53.204;6.502;2022-10-16T16:48:20;3.00;;;2.33;;
22455;SDS011;11395;53.204;6.502;2022-10-16T16:50:47;3.23;;;2.23;;
22455;SDS011;11395;53.204;6.502;2022-10-16T16:53:14;3.73;;;2.50;;
22455;SDS011;11395;53.204;6.502;2022-10-16T16:55:40;4.50;;;2.43;;
22455;SDS011;11395;53.204;6.502;2022-10-16T16:58:07;3.90;;;2.20;;
22455;SDS011;11395;53.204;6.502;2022-10-16T17:00:33;2.80;;;2.17;;
22455;SDS011;11395;53.204;6.502;2022-10-16T17:02:59;3.23;;;2.67;;
22455;SDS011;11395;53.204;6.502;2022-10-16T17:05:26;5.13;;;2.47;;
22455;SDS011;11395;53.204;6.502;2022-10-16T17:07:53;2.80;;;2.07;;
22455;SDS011;11395;53.204;6.502;2022-10-16T17:10:19;3.17;;;2.23;;
22455;SDS011;11395;53.204;6.502;2022-10-16T17:12:46;5.50;;;2.20;;
22455;SDS011;11395;53.204;6.502;2022-10-16T17:15:12;3.83;;;2.00;;
22455;SDS011;11395;53.204;6.502;2022-10-16T17:17:39;4.13;;;2.20;;
22455;SDS011;11395;53.204;6.502;2022-10-16T17:20:06;3.63;;;2.00;;
22455;SDS011;11395;53.204;6.502;2022-10-16T17:22:34;5.77;;;2.00;;
22455;SDS011;11395;53.204;6.502;2022-10-16T17:25:01;3.17;;;2.20;;
22455;SDS011;11395;53.204;6.502;2022-10-16T17:27:29;2.07;;;1.90;;
22455;SDS011;11395;53.204;6.502;2022-10-16T17:29:55;2.60;;;1.73;;
22455;SDS011;11395;53.204;6.502;2022-10-16T17:32:21;3.63;;;2.17;;